Cache Junction, Utah
Current Conditions -  °F | °C
As of 4:51 AM on Tuesday 21 Oct 2014 (Local Time) from KLGU Reporting Station
Light Rain Light Rain  
Wind Chill: 38°   Ceiling: Unl
Heat Index: 43°   Visibility: 10mi
Dew Point: 39°   Wind: 9mph
Humidity: 86%   Direction: 330°NNW
Pressure: 29.85"   Gusts: NA
Location:  41.84°N, 112.01°W
Report Text: KLGU 211051Z AUTO 33008KT 10SM -RA FEW024 SCT100 06/04 A2985 RMK AO2 RAB51 SLP073 P0000 T00610039 TSNO
Loading
Personal Weather Stations






























Interactive Weather Map
Tropical Storm Tracking
New forecast layout! Learn more

10-Day Weather Forecast

Advertisements
Track Severe Weather on mobile